Time;durP1;ratioP1;P1;durP2;ratioP2;P2;SDS_P1;SDS_P2;PMS_P1;PMS_P2;Temp;Humidity;BMP_temperature;BMP_pressure;BME280_temperature;BME280_humidity;BME280_pressure;Samples;Min_cycle;Max_cycle;Signal;HPM_P1;HPM_P2
2021/06/15 20:15:53;;;;;;;7.15;3.85;;;;;;;27.13;44.89;101263.41;352357;27;20297;-57
2021/06/15 20:16:07;;;;;;;8.85;3.80;;;;;;;27.14;44.39;101264.25;352583;28;1227;-54
2021/06/15 20:16:22;;;;;;;11.02;4.05;;;;;;;27.10;44.07;101267.25;352531;28;1373;-54
2021/06/15 20:16:34;;;;;;;10.00;4.10;;;;;;;27.11;44.09;101265.41;352368;28;2046;-55
2021/06/15 20:16:46;;;;;;;8.88;4.20;;;;;;;27.12;43.81;101256.28;352492;28;2044;-61
2021/06/15 20:16:58;;;;;;;9.27;4.20;;;;;;;27.13;44.04;101266.09;352648;28;1044;-55
2021/06/15 20:17:12;;;;;;;9.73;4.28;;;;;;;27.12;43.63;101261.69;352410;28;2003;-52
2021/06/15 20:17:23;;;;;;;8.18;4.35;;;;;;;27.14;43.82;101261.56;353911;28;1106;-55
2021/06/15 20:17:36;;;;;;;8.30;4.40;;;;;;;27.14;43.73;101264.25;352473;28;1983;-55
2021/06/15 20:17:48;;;;;;;7.47;4.25;;;;;;;27.14;44.13;101265.09;352441;28;2114;-54
2021/06/15 20:18:00;;;;;;;9.30;4.10;;;;;;;27.14;43.80;101259.69;352485;28;1249;-58
2021/06/15 20:18:12;;;;;;;8.63;4.03;;;;;;;27.15;44.13;101266.81;352550;28;2008;-55
2021/06/15 20:18:24;;;;;;;8.10;3.92;;;;;;;27.17;43.81;101266.66;352456;28;1133;-60
2021/06/15 20:18:40;;;;;;;7.15;3.90;;;;;;;27.19;43.43;101260.09;352316;28;2422;-67
2021/06/15 20:18:52;;;;;;;8.27;3.92;;;;;;;27.20;44.07;101263.66;350860;28;2104;-65
2021/06/15 20:19:03;;;;;;;9.57;4.10;;;;;;;27.19;43.78;101267.34;351066;28;777;-67
2021/06/15 20:19:16;;;;;;;9.60;4.20;;;;;;;27.20;43.92;101269.91;351001;28;1965;-67
2021/06/15 20:19:28;;;;;;;8.55;4.10;;;;;;;27.20;43.69;101267.19;352115;28;1988;-63
2021/06/15 20:19:40;;;;;;;7.50;3.90;;;;;;;27.20;43.72;101267.19;351126;28;1154;-61
2021/06/15 20:19:51;;;;;;;8.43;4.00;;;;;;;27.19;43.46;101265.50;350950;28;2052;-59
2021/06/15 20:20:05;;;;;;;9.02;4.15;;;;;;;27.19;43.47;101267.34;351142;28;1037;-54
2021/06/15 20:20:17;;;;;;;9.30;4.13;;;;;;;27.18;43.60;101265.66;350730;28;1788;-58
2021/06/15 20:20:29;;;;;;;8.52;3.95;;;;;;;27.16;43.68;101265.81;350394;28;3703;-59
2021/06/15 20:20:40;;;;;;;8.13;3.80;;;;;;;27.16;43.84;101273.03;345366;28;11789;-59
2021/06/15 20:22:12;;;;;;;6.22;4.05;;;;;;;27.14;43.24;101265.09;352545;27;20136;-57
2021/06/15 20:22:23;;;;;;;6.65;4.05;;;;;;;27.13;43.63;101270.66;345665;28;10968;-54
2021/06/15 20:22:36;;;;;;;7.18;4.10;;;;;;;27.24;54.71;101268.63;351189;28;1147;-61
2021/06/15 20:22:48;;;;;;;8.32;4.30;;;;;;;27.35;48.57;101272.97;351035;28;1970;-61
2021/06/15 20:23:00;;;;;;;7.88;4.20;;;;;;;27.36;46.71;101266.53;351254;28;1139;-63
2021/06/15 20:23:13;;;;;;;7.25;4.10;;;;;;;27.49;60.57;101271.63;351259;28;1100;-62
2021/06/15 20:23:25;;;;;;;7.35;4.03;;;;;;;27.56;53.89;101271.88;351055;28;1715;-59
2021/06/15 20:23:37;;;;;;;7.38;4.10;;;;;;;27.58;52.76;101276.09;349387;28;12024;-59
2021/06/15 20:23:49;;;;;;;8.10;4.13;;;;;;;27.69;54.06;101274.16;349483;28;11143;-60
2021/06/15 20:24:03;;;;;;;7.82;4.18;;;;;;;27.79;58.28;101269.56;348081;28;11238;-60
2021/06/15 20:24:32;;;;;;;8.85;4.07;;;;;;;27.68;45.78;101267.94;346398;28;11294;-58
2021/06/15 20:24:44;;;;;;;9.27;4.00;;;;;;;27.64;45.92;101271.09;348502;28;1653;-59
2021/06/15 20:24:58;;;;;;;9.38;3.90;;;;;;;27.57;45.06;101271.72;349722;28;1098;-57
2021/06/15 20:25:11;;;;;;;8.25;3.80;;;;;;;27.51;44.56;101266.91;349651;28;1727;-55
2021/06/15 20:25:25;;;;;;;6.85;4.00;;;;;;;27.45;43.89;101272.06;349686;28;1351;-57
2021/06/15 20:26:01;;;;;;;6.43;3.70;;;;;;;27.33;43.69;101264.16;344142;27;76114;-60
2021/06/15 20:26:13;;;;;;;6.15;3.92;;;;;;;27.31;43.40;101273.41;350454;28;1671;-58
2021/06/15 20:26:25;;;;;;;6.88;3.92;;;;;;;27.31;43.67;101276.94;350470;28;1130;-59
2021/06/15 20:26:37;;;;;;;7.10;3.85;;;;;;;27.31;43.64;101266.16;350103;28;1935;-58
2021/06/15 20:26:49;;;;;;;7.35;3.80;;;;;;;27.33;43.63;101268.69;351232;28;1209;-59
2021/06/15 20:27:01;;;;;;;10.23;3.90;;;;;;;27.32;44.00;101269.72;351079;28;1110;-61
2021/06/15 20:27:13;;;;;;;10.70;3.95;;;;;;;27.33;43.53;101266.84;351105;28;1759;-59
2021/06/15 20:27:24;;;;;;;14.13;4.10;;;;;;;27.33;43.93;101269.56;351188;28;1029;-53
2021/06/15 20:27:36;;;;;;;13.93;4.10;;;;;;;27.33;43.63;101268.69;350961;28;1783;-57
2021/06/15 20:27:48;;;;;;;12.80;3.88;;;;;;;27.33;43.22;101269.56;350958;28;1173;-62
2021/06/15 20:28:01;;;;;;;10.10;3.80;;;;;;;27.31;43.64;101268.00;351020;28;1822;-65
2021/06/15 20:28:12;;;;;;;9.88;4.10;;;;;;;27.31;43.42;101268.00;351062;28;1841;-62
2021/06/15 20:28:24;;;;;;;10.18;4.32;;;;;;;27.29;43.31;101272.69;351170;28;2304;-59
2021/06/15 20:28:36;;;;;;;9.40;4.25;;;;;;;27.24;43.91;101268.63;350889;28;1833;-60
2021/06/15 20:28:52;;;;;;;8.95;4.32;;;;;;;27.22;43.60;101272.44;351151;28;1034;-59
2021/06/15 20:29:04;;;;;;;8.75;4.40;;;;;;;27.23;44.00;101274.16;351008;28;1066;-59
2021/06/15 20:29:16;;;;;;;8.18;4.22;;;;;;;27.25;43.71;101274.84;351054;28;1841;-59
2021/06/15 20:29:28;;;;;;;8.02;4.20;;;;;;;27.26;43.58;101273.84;351223;28;1200;-55
2021/06/15 20:29:39;;;;;;;8.40;4.20;;;;;;;27.22;43.86;101275.13;351172;28;1790;-64
2021/06/15 20:29:51;;;;;;;9.52;4.30;;;;;;;27.26;43.90;101273.84;351142;28;1746;-62
2021/06/15 20:30:05;;;;;;;11.43;4.10;;;;;;;27.26;43.43;101272.00;351218;28;1220;-62
2021/06/15 20:30:18;;;;;;;12.23;4.22;;;;;;;27.26;43.67;101277.41;351185;28;1810;-63
2021/06/15 20:30:30;;;;;;;10.40;4.32;;;;;;;27.25;43.65;101274.84;351237;28;1005;-59
2021/06/15 20:30:41;;;;;;;8.65;4.20;;;;;;;27.24;43.56;101275.84;351129;28;1018;-59
2021/06/15 20:30:53;;;;;;;8.85;4.20;;;;;;;27.26;43.18;101277.41;351140;28;1797;-58
2021/06/15 20:31:05;;;;;;;9.43;4.20;;;;;;;27.19;43.66;101272.75;351254;28;1053;-59
2021/06/15 20:31:18;;;;;;;8.68;4.28;;;;;;;27.17;43.73;101270.22;351124;28;1806;-59
2021/06/15 20:31:31;;;;;;;7.78;4.25;;;;;;;27.23;43.31;101277.72;349762;28;740;-58
2021/06/15 20:31:43;;;;;;;6.72;4.22;;;;;;;27.24;43.67;101267.75;348391;28;1070;-58
2021/06/15 20:31:55;;;;;;;6.72;4.18;;;;;;;27.26;43.27;101274.69;348806;28;1799;-58
2021/06/15 20:32:07;;;;;;;7.10;4.43;;;;;;;27.27;43.26;101280.97;349529;28;970;-59
2021/06/15 20:32:19;;;;;;;8.38;4.38;;;;;;;27.26;43.40;101281.97;349564;28;1799;-61
2021/06/15 20:32:31;;;;;;;9.65;4.30;;;;;;;27.25;43.68;101275.69;349598;28;1865;-59
2021/06/15 20:32:44;;;;;;;8.45;4.40;;;;;;;27.23;43.23;101269.59;348941;28;967;-58
2021/06/15 20:32:56;;;;;;;8.45;4.45;;;;;;;27.22;43.56;101276.00;348992;28;1724;-59
2021/06/15 20:33:10;;;;;;;7.95;4.40;;;;;;;27.22;43.50;101281.41;349702;28;729;-59
2021/06/15 20:33:21;;;;;;;8.00;4.47;;;;;;;27.23;43.70;101269.59;349606;28;1111;-60
2021/06/15 20:33:33;;;;;;;7.93;4.30;;;;;;;27.24;43.45;101278.53;351083;28;1876;-63
2021/06/15 20:33:56;;;;;;;7.95;3.67;;;;;;;27.26;43.07;101277.41;351413;27;20604;-62
2021/06/15 20:34:08;;;;;;;8.40;3.90;;;;;;;27.27;43.22;101276.41;326246;28;20629;-61
2021/06/15 20:34:21;;;;;;;7.80;4.05;;;;;;;27.28;43.39;101279.97;347909;28;73132;-61
2021/06/15 20:34:33;;;;;;;8.32;4.28;;;;;;;27.26;43.06;101280.09;349661;28;1829;-62
2021/06/15 20:34:46;;;;;;;9.25;4.50;;;;;;;27.24;43.28;101279.41;349696;28;672;-60
2021/06/15 20:34:58;;;;;;;9.30;4.60;;;;;;;27.20;43.33;101278.00;349584;28;1822;-61
2021/06/15 20:35:15;;;;;;;9.02;4.72;;;;;;;27.22;43.33;101275.13;349560;28;1813;-60
2021/06/15 20:35:27;;;;;;;9.88;4.82;;;;;;;27.24;43.23;101273.16;349743;28;584;-62
2021/06/15 20:36:36;;;;;;;9.35;4.20;;;;;;;27.19;43.58;101275.47;2097830;27;20440;-62
2021/06/15 20:37:38;;;;;;;7.53;4.80;;;;;;;27.19;43.66;101279.00;2083789;28;105226;-61
2021/06/15 20:38:40;;;;;;;8.70;4.72;;;;;;;27.14;43.78;101269.66;2089958;28;20064;-59
2021/06/15 20:39:43;;;;;;;9.10;4.35;;;;;;;27.21;43.39;101273.47;2090513;28;20226;-63
2021/06/15 20:41:06;;;;;;;14.05;4.93;;;;;;;28.68;46.14;101277.69;2085705;28;20050;-65
